Login
  • Date & time: 02/09/19 09:00
  • Location: Hässleholm Discgolfpark → Ordinarie
  • Send email to admins
  • Comment: Betalning sker via swish (100 kr) till 0709382772 TD Patrik Sahlin. Samling 08.45 vid puttfältet, glöm inte acepott 10 kr som betalas samtidigt som anmälan. Utbetalat = betalt / Bekräftad = med i ACE-pott. Vi bjuder på på greefeen som är 25 kr.

  1 2 3 4 5 6 7 8 9101112131415161718+/-Sum    
  Par:34333434534543334364
  1 2 3 4 5 6 7 8 9101112131415161718+/-Sum    
Pro Open (16)
1Johan Gehrisch02/09/19 09:00433224245644423332-460  -460
  02/09/19 13:00232322334233223322-1846-22106 -1846
2Johan Larsson02/09/19 09:00333234235446523343-262  -262
  02/09/19 13:00243233224334223222-1648-18110 -1648
3Eddie Z Velevski02/09/19 09:00333335345345543242064  064
  02/09/19 13:00333333234223322333-1450-14114 -1450
3Robert Liljeström02/09/19 09:00244334455335424352+165  165
  02/09/19 13:00342223233334223233-1549-14114 -1549
3Tim Hirvonen02/09/19 09:00233234334545424233-559  -559
  02/09/19 13:00343243453334222233-955-14114 -955
6Christian Hansson02/09/19 09:00343443284345425252+367  367
  02/09/19 13:00232323235224333332-1450-11117 -1450
7Johan Stensmar02/09/19 09:00343244444346433542+266  266
  02/09/19 13:00332233334234333332-1252-10118 -1252
8Linus Engdahl02/09/19 09:00534334345445323344+266  266
  02/09/19 13:00233223335244332333-1153-9119 -1153
9Casper Reenberg02/09/19 09:00533344365344434432+367  367
  02/09/19 13:00343224343335332223-1054-7121 -1054
9Erik Elisson02/09/19 09:00333334355348333452+367  367
  02/09/19 13:00352233434324333232-1054-7121 -1054
9Viktor Malmlöf02/09/19 09:00443434346445434343+569  569
  02/09/19 13:00232243333234334233-1252-7121 -1252
12Magnus Rengman02/09/19 09:00553343346445434343+670  670
  02/09/19 13:00332333335334333242-955-3125 -955
13Edward Heed02/09/19 09:00444374274445434352+973  973
  02/09/19 13:00243224323235533223-1153-2126 -1153
14Christoffer Hansson02/09/19 09:00443286264356534352+1175  1175
  02/09/19 13:00453323236226423233-658+5133 -658
15Mathias Bergkvist02/09/19 09:00454344356259633443+1377  1377
  02/09/19 13:00353433255335342232-460+9137 -460
16Tomas Lövkvist02/09/19 09:00553356666346534343+1680  1680
  02/09/19 13:00343324445334434232-460+12140 -460
  1 2 3 4 5 6 7 8 9101112131415161718+/-Sum    
Recreational (10)
1Fabian Persson02/09/19 09:00553346355357434342+1074  1074
  02/09/19 13:00232233336235333233-10540128 -1054
2Lasse Carlsen02/09/19 09:00354354456346444353+1175  1175
  02/09/19 13:00442234234234533233-856+3131 -856
3Adam Tellbe02/09/19 09:00345335564447423453+1074  1074
  02/09/19 13:00333333544363323232-658+4132 -658
4Fredrik Rosell02/09/19 09:00353335657456445443+1579  1579
  02/09/19 13:00343343335234332333-757+8136 -757
5Johan Wiberg02/09/19 09:00545545346356534453+1579  1579
  02/09/19 13:00342324434236333432-658+9137 -658
6Samuel Johansson02/09/19 09:00344634545457634344+1478  1478
  02/09/19 13:00342345344334334354064+14142 064
7Robert Martin02/09/19 09:00574345376456534453+1983  1983
  02/09/19 13:00343333446344523343064+19147 064
7Tomas Alinder02/09/19 09:00554465358467633453+2286  2286
  02/09/19 13:00343233445244523343-361+19147 -361
9Anders Wallner02/09/19 09:00545466467557735563+2993  2993
  02/09/19 13:00553345345456434343+973+38166 973
10Tomas Jürs02/09/19 09:00555566477569677786+47DNF+999999

Sponsors

Latitude 64

Course statistics

View: Grouped chart | Detailed chart | Table


 User statistics 
 | 
 Show presenter
 | 
Show pdf 

Results will be updated every 30 seconds!

Share

What would you like to share?